sensor_id;sensor_type;location;lat;lon;timestamp;pressure;altitude;pressure_sealevel;temperature;humidity
54924;BME280;40825;52.270;20.984;2022-07-21T00:00:05;101018.59;;;23.02;49.33
54924;BME280;40825;52.270;20.984;2022-07-21T00:00:35;101017.52;;;22.99;49.20
54924;BME280;40825;52.270;20.984;2022-07-21T00:01:03;101018.27;;;22.96;49.39
54924;BME280;40825;52.270;20.984;2022-07-21T00:01:24;101014.39;;;22.94;49.44
54924;BME280;40825;52.270;20.984;2022-07-21T00:01:47;101015.70;;;22.94;49.40
54924;BME280;40825;52.270;20.984;2022-07-21T00:02:12;101014.45;;;22.94;49.46
54924;BME280;40825;52.270;20.984;2022-07-21T00:02:33;101015.59;;;22.93;49.40
54924;BME280;40825;52.270;20.984;2022-07-21T00:02:58;101015.36;;;22.93;49.51
54924;BME280;40825;52.270;20.984;2022-07-21T00:03:20;101017.84;;;22.92;49.51
54924;BME280;40825;52.270;20.984;2022-07-21T00:03:41;101016.32;;;22.91;49.52
54924;BME280;40825;52.270;20.984;2022-07-21T00:04:03;101016.04;;;22.91;49.51
54924;BME280;40825;52.270;20.984;2022-07-21T00:04:25;101016.91;;;22.90;49.56
54924;BME280;40825;52.270;20.984;2022-07-21T00:04:46;101015.96;;;22.89;49.48
54924;BME280;40825;52.270;20.984;2022-07-21T00:05:08;101016.90;;;22.89;49.55
54924;BME280;40825;52.270;20.984;2022-07-21T00:05:30;101018.25;;;22.88;49.57
54924;BME280;40825;52.270;20.984;2022-07-21T00:05:51;101017.11;;;22.89;49.61
54924;BME280;40825;52.270;20.984;2022-07-21T00:06:13;101018.91;;;22.89;49.52
54924;BME280;40825;52.270;20.984;2022-07-21T00:06:35;101020.05;;;22.89;49.66
54924;BME280;40825;52.270;20.984;2022-07-21T00:06:56;101020.60;;;22.89;49.68
54924;BME280;40825;52.270;20.984;2022-07-21T00:07:18;101018.91;;;22.89;49.68
54924;BME280;40825;52.270;20.984;2022-07-21T00:08:00;101018.81;;;22.84;49.67
54924;BME280;40825;52.270;20.984;2022-07-21T00:08:31;101019.79;;;22.81;49.74
54924;BME280;40825;52.270;20.984;2022-07-21T00:08:52;101021.63;;;22.81;49.60
54924;BME280;40825;52.270;20.984;2022-07-21T00:09:15;101021.77;;;22.80;49.72
54924;BME280;40825;52.270;20.984;2022-07-21T00:09:36;101024.23;;;22.81;49.89
54924;BME280;40825;52.270;20.984;2022-07-21T00:09:58;101020.10;;;22.82;49.85
54924;BME280;40825;52.270;20.984;2022-07-21T00:10:22;101024.58;;;22.82;49.94
54924;BME280;40825;52.270;20.984;2022-07-21T00:10:45;101022.61;;;22.82;49.87
54924;BME280;40825;52.270;20.984;2022-07-21T00:11:06;101021.84;;;22.81;50.04
54924;BME280;40825;52.270;20.984;2022-07-21T00:11:28;101021.03;;;22.82;49.97
54924;BME280;40825;52.270;20.984;2022-07-21T00:11:49;101023.60;;;22.81;50.08
54924;BME280;40825;52.270;20.984;2022-07-21T00:12:11;101023.97;;;22.81;49.96
54924;BME280;40825;52.270;20.984;2022-07-21T00:12:33;101023.04;;;22.82;49.97
54924;BME280;40825;52.270;20.984;2022-07-21T00:12:56;101022.92;;;22.81;49.85
54924;BME280;40825;52.270;20.984;2022-07-21T00:13:19;101022.31;;;22.80;49.87
54924;BME280;40825;52.270;20.984;2022-07-21T00:13:40;101023.66;;;22.80;49.88
54924;BME280;40825;52.270;20.984;2022-07-21T00:14:03;101022.75;;;22.80;49.89
54924;BME280;40825;52.270;20.984;2022-07-21T00:14:24;101023.61;;;22.79;49.90
54924;BME280;40825;52.270;20.984;2022-07-21T00:14:46;101020.45;;;22.78;49.87
54924;BME280;40825;52.270;20.984;2022-07-21T00:15:08;101022.31;;;22.79;50.04
54924;BME280;40825;52.270;20.984;2022-07-21T00:15:30;101023.73;;;22.79;49.93
54924;BME280;40825;52.270;20.984;2022-07-21T00:15:52;101023.95;;;22.79;49.96
54924;BME280;40825;52.270;20.984;2022-07-21T00:16:16;101021.51;;;22.79;49.95
54924;BME280;40825;52.270;20.984;2022-07-21T00:16:39;101023.13;;;22.80;49.95
54924;BME280;40825;52.270;20.984;2022-07-21T00:17:01;101022.63;;;22.79;49.98
54924;BME280;40825;52.270;20.984;2022-07-21T00:17:23;101020.58;;;22.78;49.89
54924;BME280;40825;52.270;20.984;2022-07-21T00:17:45;101022.42;;;22.79;50.14
54924;BME280;40825;52.270;20.984;2022-07-21T00:18:06;101021.61;;;22.79;50.04
54924;BME280;40825;52.270;20.984;2022-07-21T00:18:28;101022.54;;;22.80;50.03
54924;BME280;40825;52.270;20.984;2022-07-21T00:18:50;101019.48;;;22.80;50.02
54924;BME280;40825;52.270;20.984;2022-07-21T00:19:12;101019.60;;;22.80;50.14
54924;BME280;40825;52.270;20.984;2022-07-21T00:19:33;101019.81;;;22.80;50.02
54924;BME280;40825;52.270;20.984;2022-07-21T00:19:55;101025.04;;;22.80;50.05
54924;BME280;40825;52.270;20.984;2022-07-21T00:20:18;101023.36;;;22.80;50.01
54924;BME280;40825;52.270;20.984;2022-07-21T00:20:40;101022.21;;;22.81;50.08
54924;BME280;40825;52.270;20.984;2022-07-21T00:21:02;101019.67;;;22.82;50.11
54924;BME280;40825;52.270;20.984;2022-07-21T00:21:23;101023.42;;;22.83;50.13
54924;BME280;40825;52.270;20.984;2022-07-21T00:21:45;101022.29;;;22.83;50.00
54924;BME280;40825;52.270;20.984;2022-07-21T00:22:06;101021.90;;;22.83;50.03
54924;BME280;40825;52.270;20.984;2022-07-21T00:22:28;101023.33;;;22.83;50.16
54924;BME280;40825;52.270;20.984;2022-07-21T00:22:49;101021.69;;;22.84;50.19
54924;BME280;40825;52.270;20.984;2022-07-21T00:23:12;101019.70;;;22.85;50.12
54924;BME280;40825;52.270;20.984;2022-07-21T00:23:33;101023.84;;;22.86;50.16
54924;BME280;40825;52.270;20.984;2022-07-21T00:23:55;101024.34;;;22.87;50.09
54924;BME280;40825;52.270;20.984;2022-07-21T00:24:17;101023.58;;;22.87;50.10
54924;BME280;40825;52.270;20.984;2022-07-21T00:24:38;101026.79;;;22.87;50.22
54924;BME280;40825;52.270;20.984;2022-07-21T00:25:00;101025.87;;;22.88;50.33
54924;BME280;40825;52.270;20.984;2022-07-21T00:25:22;101025.01;;;22.89;50.34
54924;BME280;40825;52.270;20.984;2022-07-21T00:25:43;101021.74;;;22.89;50.12
54924;BME280;40825;52.270;20.984;2022-07-21T00:26:05;101026.81;;;22.89;50.21
54924;BME280;40825;52.270;20.984;2022-07-21T00:26:27;101025.82;;;22.89;50.27
54924;BME280;40825;52.270;20.984;2022-07-21T00:26:48;101027.17;;;22.88;50.29
54924;BME280;40825;52.270;20.984;2022-07-21T00:27:10;101027.77;;;22.87;50.28
54924;BME280;40825;52.270;20.984;2022-07-21T00:27:31;101024.17;;;22.87;50.21
54924;BME280;40825;52.270;20.984;2022-07-21T00:27:53;101025.31;;;22.85;50.29
54924;BME280;40825;52.270;20.984;2022-07-21T00:28:15;101023.39;;;22.85;50.22
54924;BME280;40825;52.270;20.984;2022-07-21T00:28:36;101025.52;;;22.84;50.26
54924;BME280;40825;52.270;20.984;2022-07-21T00:28:58;101025.88;;;22.84;50.30
54924;BME280;40825;52.270;20.984;2022-07-21T00:29:20;101024.30;;;22.84;50.31
54924;BME280;40825;52.270;20.984;2022-07-21T00:29:41;101026.27;;;22.84;50.34
54924;BME280;40825;52.270;20.984;2022-07-21T00:30:05;101025.89;;;22.84;50.44
54924;BME280;40825;52.270;20.984;2022-07-21T00:30:27;101023.92;;;22.83;50.36
54924;BME280;40825;52.270;20.984;2022-07-21T00:30:49;101024.07;;;22.82;50.44
54924;BME280;40825;52.270;20.984;2022-07-21T00:31:10;101023.70;;;22.81;50.49
54924;BME280;40825;52.270;20.984;2022-07-21T00:31:32;101024.30;;;22.80;50.41
54924;BME280;40825;52.270;20.984;2022-07-21T00:31:54;101022.16;;;22.81;50.44
54924;BME280;40825;52.270;20.984;2022-07-21T00:32:16;101024.23;;;22.81;50.45
54924;BME280;40825;52.270;20.984;2022-07-21T00:32:37;101020.57;;;22.80;50.50
54924;BME280;40825;52.270;20.984;2022-07-21T00:32:59;101021.60;;;22.79;50.65
54924;BME280;40825;52.270;20.984;2022-07-21T00:33:21;101020.84;;;22.78;50.51
54924;BME280;40825;52.270;20.984;2022-07-21T00:33:43;101018.90;;;22.77;50.56
54924;BME280;40825;52.270;20.984;2022-07-21T00:34:04;101025.05;;;22.76;50.60
54924;BME280;40825;52.270;20.984;2022-07-21T00:34:26;101022.81;;;22.75;50.62
54924;BME280;40825;52.270;20.984;2022-07-21T00:34:48;101020.58;;;22.74;50.75
54924;BME280;40825;52.270;20.984;2022-07-21T00:35:11;101021.06;;;22.74;50.64
54924;BME280;40825;52.270;20.984;2022-07-21T00:35:32;101023.84;;;22.73;50.68
54924;BME280;40825;52.270;20.984;2022-07-21T00:36:01;101022.45;;;22.72;50.84
54924;BME280;40825;52.270;20.984;2022-07-21T00:36:25;101020.86;;;22.69;50.67
54924;BME280;40825;52.270;20.984;2022-07-21T00:36:54;101020.55;;;22.65;50.91
54924;BME280;40825;52.270;20.984;2022-07-21T00:37:16;101023.04;;;22.63;50.81
54924;BME280;40825;52.270;20.984;2022-07-21T00:37:38;101022.86;;;22.63;50.94
54924;BME280;40825;52.270;20.984;2022-07-21T00:38:00;101024.00;;;22.63;50.89
54924;BME280;40825;52.270;20.984;2022-07-21T00:38:22;101021.61;;;22.63;50.90
54924;BME280;40825;52.270;20.984;2022-07-21T00:38:43;101024.35;;;22.63;50.96
54924;BME280;40825;52.270;20.984;2022-07-21T00:39:05;101023.89;;;22.63;51.04
54924;BME280;40825;52.270;20.984;2022-07-21T00:39:26;101021.99;;;22.63;51.06
54924;BME280;40825;52.270;20.984;2022-07-21T00:39:48;101023.02;;;22.62;51.19
54924;BME280;40825;52.270;20.984;2022-07-21T00:40:11;101022.42;;;22.62;51.01
54924;BME280;40825;52.270;20.984;2022-07-21T00:40:34;101022.31;;;22.62;50.99
54924;BME280;40825;52.270;20.984;2022-07-21T00:40:56;101021.55;;;22.62;51.10
54924;BME280;40825;52.270;20.984;2022-07-21T00:41:18;101024.11;;;22.63;51.03
54924;BME280;40825;52.270;20.984;2022-07-21T00:41:39;101024.45;;;22.63;51.20
54924;BME280;40825;52.270;20.984;2022-07-21T00:42:02;101024.13;;;22.64;51.16
54924;BME280;40825;52.270;20.984;2022-07-21T00:42:31;101026.63;;;22.63;51.06
54924;BME280;40825;52.270;20.984;2022-07-21T00:42:53;101026.11;;;22.61;51.23
54924;BME280;40825;52.270;20.984;2022-07-21T00:43:15;101021.80;;;22.59;51.16
54924;BME280;40825;52.270;20.984;2022-07-21T00:43:36;101020.59;;;22.59;51.00
54924;BME280;40825;52.270;20.984;2022-07-21T00:43:58;101026.21;;;22.59;51.17
54924;BME280;40825;52.270;20.984;2022-07-21T00:44:25;101024.02;;;22.59;51.22
54924;BME280;40825;52.270;20.984;2022-07-21T00:44:47;101021.56;;;22.59;51.07
54924;BME280;40825;52.270;20.984;2022-07-21T00:45:10;101023.69;;;22.59;51.22
54924;BME280;40825;52.270;20.984;2022-07-21T00:45:32;101021.48;;;22.60;51.31
54924;BME280;40825;52.270;20.984;2022-07-21T00:45:54;101025.36;;;22.61;51.28
54924;BME280;40825;52.270;20.984;2022-07-21T00:46:19;101023.87;;;22.60;51.30
54924;BME280;40825;52.270;20.984;2022-07-21T00:46:41;101023.61;;;22.60;51.24
54924;BME280;40825;52.270;20.984;2022-07-21T00:47:03;101023.97;;;22.59;51.29
54924;BME280;40825;52.270;20.984;2022-07-21T00:47:27;101026.80;;;22.59;51.13
54924;BME280;40825;52.270;20.984;2022-07-21T00:47:49;101022.48;;;22.57;51.36
54924;BME280;40825;52.270;20.984;2022-07-21T00:48:11;101022.14;;;22.56;51.20
54924;BME280;40825;52.270;20.984;2022-07-21T00:48:33;101019.36;;;22.56;51.34
54924;BME280;40825;52.270;20.984;2022-07-21T00:48:55;101025.90;;;22.57;51.36
54924;BME280;40825;52.270;20.984;2022-07-21T00:49:17;101022.52;;;22.56;51.28
54924;BME280;40825;52.270;20.984;2022-07-21T00:49:39;101023.46;;;22.57;51.30
54924;BME280;40825;52.270;20.984;2022-07-21T00:50:08;101020.95;;;22.57;51.21
54924;BME280;40825;52.270;20.984;2022-07-21T00:50:32;101022.52;;;22.55;51.31
54924;BME280;40825;52.270;20.984;2022-07-21T00:50:54;101024.14;;;22.54;51.27
54924;BME280;40825;52.270;20.984;2022-07-21T00:51:15;101025.66;;;22.53;51.32
54924;BME280;40825;52.270;20.984;2022-07-21T00:51:37;101022.73;;;22.54;51.29
54924;BME280;40825;52.270;20.984;2022-07-21T00:51:58;101021.96;;;22.54;51.30
54924;BME280;40825;52.270;20.984;2022-07-21T00:52:20;101025.94;;;22.54;51.25
54924;BME280;40825;52.270;20.984;2022-07-21T00:52:46;101027.02;;;22.53;51.29
54924;BME280;40825;52.270;20.984;2022-07-21T00:53:08;101027.75;;;22.51;51.38
54924;BME280;40825;52.270;20.984;2022-07-21T00:53:30;101026.23;;;22.50;51.24
54924;BME280;40825;52.270;20.984;2022-07-21T00:54:02;101024.40;;;22.50;51.36
54924;BME280;40825;52.270;20.984;2022-07-21T00:54:23;101028.50;;;22.48;51.26
54924;BME280;40825;52.270;20.984;2022-07-21T00:54:48;101024.95;;;22.47;51.42
54924;BME280;40825;52.270;20.984;2022-07-21T00:55:13;101032.19;;;22.46;51.33
54924;BME280;40825;52.270;20.984;2022-07-21T00:55:36;101031.02;;;22.44;51.53
54924;BME280;40825;52.270;20.984;2022-07-21T00:56:20;101029.98;;;22.43;51.41
54924;BME280;40825;52.270;20.984;2022-07-21T00:56:40;101032.61;;;22.40;51.57
54924;BME280;40825;52.270;20.984;2022-07-21T00:57:02;101031.99;;;22.38;51.70
54924;BME280;40825;52.270;20.984;2022-07-21T00:57:24;101032.55;;;22.39;51.72
54924;BME280;40825;52.270;20.984;2022-07-21T00:57:45;101032.45;;;22.41;51.71
54924;BME280;40825;52.270;20.984;2022-07-21T00:58:07;101029.70;;;22.42;51.74
54924;BME280;40825;52.270;20.984;2022-07-21T00:58:31;101031.44;;;22.43;52.06
54924;BME280;40825;52.270;20.984;2022-07-21T00:58:53;101031.36;;;22.45;51.83
54924;BME280;40825;52.270;20.984;2022-07-21T00:59:25;101030.83;;;22.45;51.87
54924;BME280;40825;52.270;20.984;2022-07-21T00:59:47;101030.02;;;22.43;51.81
54924;BME280;40825;52.270;20.984;2022-07-21T01:00:12;101032.36;;;22.42;52.02
54924;BME280;40825;52.270;20.984;2022-07-21T01:00:35;101038.28;;;22.42;51.80
54924;BME280;40825;52.270;20.984;2022-07-21T01:01:05;101031.86;;;22.41;51.87
54924;BME280;40825;52.270;20.984;2022-07-21T01:01:27;101030.48;;;22.38;51.82
54924;BME280;40825;52.270;20.984;2022-07-21T01:01:49;101034.31;;;22.36;51.84
54924;BME280;40825;52.270;20.984;2022-07-21T01:02:12;101035.51;;;22.35;51.86
54924;BME280;40825;52.270;20.984;2022-07-21T01:02:33;101036.15;;;22.35;51.85
54924;BME280;40825;52.270;20.984;2022-07-21T01:02:58;101036.23;;;22.33;51.89
54924;BME280;40825;52.270;20.984;2022-07-21T01:03:19;101035.39;;;22.32;51.78
54924;BME280;40825;52.270;20.984;2022-07-21T01:03:41;101032.35;;;22.31;51.76
54924;BME280;40825;52.270;20.984;2022-07-21T01:04:03;101032.17;;;22.30;51.72
54924;BME280;40825;52.270;20.984;2022-07-21T01:04:25;101032.17;;;22.30;51.71
54924;BME280;40825;52.270;20.984;2022-07-21T01:04:48;101037.19;;;22.31;51.82
54924;BME280;40825;52.270;20.984;2022-07-21T01:05:13;101034.90;;;22.30;51.67
54924;BME280;40825;52.270;20.984;2022-07-21T01:05:38;101034.29;;;22.29;51.69
54924;BME280;40825;52.270;20.984;2022-07-21T01:06:00;101034.27;;;22.28;51.75
54924;BME280;40825;52.270;20.984;2022-07-21T01:06:23;101034.98;;;22.28;51.82
54924;BME280;40825;52.270;20.984;2022-07-21T01:06:47;101039.38;;;22.27;51.80
54924;BME280;40825;52.270;20.984;2022-07-21T01:07:09;101038.45;;;22.26;51.87
54924;BME280;40825;52.270;20.984;2022-07-21T01:07:31;101036.20;;;22.25;51.84
54924;BME280;40825;52.270;20.984;2022-07-21T01:07:54;101036.70;;;22.26;51.79
54924;BME280;40825;52.270;20.984;2022-07-21T01:08:26;101035.77;;;22.26;51.81
54924;BME280;40825;52.270;20.984;2022-07-21T01:08:49;101037.45;;;22.21;51.55
54924;BME280;40825;52.270;20.984;2022-07-21T01:09:11;101037.70;;;22.19;51.49
54924;BME280;40825;52.270;20.984;2022-07-21T01:09:34;101039.42;;;22.18;51.59
54924;BME280;40825;52.270;20.984;2022-07-21T01:09:56;101041.65;;;22.17;51.51
54924;BME280;40825;52.270;20.984;2022-07-21T01:10:25;101043.29;;;22.18;51.54
54924;BME280;40825;52.270;20.984;2022-07-21T01:10:48;101040.94;;;22.17;51.38
54924;BME280;40825;52.270;20.984;2022-07-21T01:11:10;101044.38;;;22.17;51.52
54924;BME280;40825;52.270;20.984;2022-07-21T01:11:32;101040.08;;;22.17;51.49
54924;BME280;40825;52.270;20.984;2022-07-21T01:11:57;101044.70;;;22.18;51.43
54924;BME280;40825;52.270;20.984;2022-07-21T01:12:19;101044.54;;;22.18;51.42
54924;BME280;40825;52.270;20.984;2022-07-21T01:12:42;101046.50;;;22.18;51.36
54924;BME280;40825;52.270;20.984;2022-07-21T01:13:04;101047.17;;;22.19;51.39
54924;BME280;40825;52.270;20.984;2022-07-21T01:13:25;101050.33;;;22.20;51.54
54924;BME280;40825;52.270;20.984;2022-07-21T01:13:48;101050.36;;;22.21;51.47
54924;BME280;40825;52.270;20.984;2022-07-21T01:14:09;101053.13;;;22.22;51.42
54924;BME280;40825;52.270;20.984;2022-07-21T01:14:32;101052.15;;;22.21;51.41
54924;BME280;40825;52.270;20.984;2022-07-21T01:14:54;101050.78;;;22.21;51.46
54924;BME280;40825;52.270;20.984;2022-07-21T01:15:19;101054.48;;;22.21;51.36
54924;BME280;40825;52.270;20.984;2022-07-21T01:15:41;101054.70;;;22.21;51.45
54924;BME280;40825;52.270;20.984;2022-07-21T01:16:08;101054.86;;;22.21;51.39
54924;BME280;40825;52.270;20.984;2022-07-21T01:16:31;101057.44;;;22.22;51.31
54924;BME280;40825;52.270;20.984;2022-07-21T01:16:53;101055.04;;;22.22;51.47
54924;BME280;40825;52.270;20.984;2022-07-21T01:17:15;101055.02;;;22.23;51.38
54924;BME280;40825;52.270;20.984;2022-07-21T01:17:38;101056.44;;;22.25;51.49
54924;BME280;40825;52.270;20.984;2022-07-21T01:18:00;101056.66;;;22.25;51.39
54924;BME280;40825;52.270;20.984;2022-07-21T01:18:22;101055.23;;;22.25;51.26
54924;BME280;40825;52.270;20.984;2022-07-21T01:18:54;101054.31;;;22.25;51.37
54924;BME280;40825;52.270;20.984;2022-07-21T01:19:16;101058.77;;;22.25;51.28
54924;BME280;40825;52.270;20.984;2022-07-21T01:19:38;101058.44;;;22.24;51.18
54924;BME280;40825;52.270;20.984;2022-07-21T01:20:04;101060.98;;;22.23;51.38
54924;BME280;40825;52.270;20.984;2022-07-21T01:20:26;101058.90;;;22.22;51.22
54924;BME280;40825;52.270;20.984;2022-07-21T01:20:54;101059.46;;;22.23;51.24
54924;BME280;40825;52.270;20.984;2022-07-21T01:21:41;101062.75;;;22.22;51.30
54924;BME280;40825;52.270;20.984;2022-07-21T01:22:04;101063.94;;;22.16;51.45
54924;BME280;40825;52.270;20.984;2022-07-21T01:22:26;101063.64;;;22.14;51.37
54924;BME280;40825;52.270;20.984;2022-07-21T01:22:51;101062.40;;;22.15;51.39
54924;BME280;40825;52.270;20.984;2022-07-21T01:23:14;101063.77;;;22.15;51.45
54924;BME280;40825;52.270;20.984;2022-07-21T01:23:36;101064.33;;;22.16;51.52
54924;BME280;40825;52.270;20.984;2022-07-21T01:23:58;101067.06;;;22.18;51.50
54924;BME280;40825;52.270;20.984;2022-07-21T01:24:21;101065.65;;;22.19;51.60
54924;BME280;40825;52.270;20.984;2022-07-21T01:24:43;101066.01;;;22.21;51.55
54924;BME280;40825;52.270;20.984;2022-07-21T01:25:05;101066.66;;;22.21;51.56
54924;BME280;40825;52.270;20.984;2022-07-21T01:25:27;101067.55;;;22.22;51.72
54924;BME280;40825;52.270;20.984;2022-07-21T01:25:49;101063.59;;;22.23;51.86
54924;BME280;40825;52.270;20.984;2022-07-21T01:26:11;101068.94;;;22.24;51.96
54924;BME280;40825;52.270;20.984;2022-07-21T01:26:47;101067.54;;;22.25;51.88
54924;BME280;40825;52.270;20.984;2022-07-21T01:27:09;101061.26;;;22.23;51.79
54924;BME280;40825;52.270;20.984;2022-07-21T01:27:31;101063.63;;;22.22;52.06
54924;BME280;40825;52.270;20.984;2022-07-21T01:27:52;101066.68;;;22.22;52.14
54924;BME280;40825;52.270;20.984;2022-07-21T01:28:14;101065.05;;;22.23;52.00
54924;BME280;40825;52.270;20.984;2022-07-21T01:28:35;101065.77;;;22.23;51.86
54924;BME280;40825;52.270;20.984;2022-07-21T01:28:57;101064.92;;;22.24;51.84
54924;BME280;40825;52.270;20.984;2022-07-21T01:29:19;101060.83;;;22.24;51.89
54924;BME280;40825;52.270;20.984;2022-07-21T01:29:41;101060.94;;;22.25;51.93
54924;BME280;40825;52.270;20.984;2022-07-21T01:30:05;101061.60;;;22.25;51.75
54924;BME280;40825;52.270;20.984;2022-07-21T01:30:29;101061.87;;;22.25;51.79
54924;BME280;40825;52.270;20.984;2022-07-21T01:30:50;101059.95;;;22.23;51.66
54924;BME280;40825;52.270;20.984;2022-07-21T01:31:15;101061.41;;;22.23;51.69
54924;BME280;40825;52.270;20.984;2022-07-21T01:31:38;101063.36;;;22.22;51.72
54924;BME280;40825;52.270;20.984;2022-07-21T01:32:00;101058.13;;;22.20;51.68
54924;BME280;40825;52.270;20.984;2022-07-21T01:32:22;101060.63;;;22.20;51.79
54924;BME280;40825;52.270;20.984;2022-07-21T01:32:45;101060.46;;;22.20;51.84
54924;BME280;40825;52.270;20.984;2022-07-21T01:33:06;101060.90;;;22.21;51.79
54924;BME280;40825;52.270;20.984;2022-07-21T01:33:30;101059.48;;;22.20;51.87
54924;BME280;40825;52.270;20.984;2022-07-21T01:33:54;101057.97;;;22.21;51.80
54924;BME280;40825;52.270;20.984;2022-07-21T01:34:17;101058.55;;;22.21;51.85
54924;BME280;40825;52.270;20.984;2022-07-21T01:34:42;101060.23;;;22.19;51.81
54924;BME280;40825;52.270;20.984;2022-07-21T01:35:05;101057.53;;;22.18;51.85
54924;BME280;40825;52.270;20.984;2022-07-21T01:35:27;101057.09;;;22.16;51.83
54924;BME280;40825;52.270;20.984;2022-07-21T01:35:48;101059.05;;;22.16;51.80
54924;BME280;40825;52.270;20.984;2022-07-21T01:36:11;101061.73;;;22.15;51.91
54924;BME280;40825;52.270;20.984;2022-07-21T01:36:33;101057.55;;;22.14;51.86
54924;BME280;40825;52.270;20.984;2022-07-21T01:36:54;101061.19;;;22.13;51.86
54924;BME280;40825;52.270;20.984;2022-07-21T01:37:23;101060.09;;;22.14;51.80
54924;BME280;40825;52.270;20.984;2022-07-21T01:37:48;101060.67;;;22.12;51.91
54924;BME280;40825;52.270;20.984;2022-07-21T01:38:10;101059.02;;;22.10;51.88
54924;BME280;40825;52.270;20.984;2022-07-21T01:38:51;101058.64;;;22.06;51.77
54924;BME280;40825;52.270;20.984;2022-07-21T01:39:32;101060.31;;;22.00;51.84
54924;BME280;40825;52.270;20.984;2022-07-21T01:40:14;101062.59;;;21.95;51.89
54924;BME280;40825;52.270;20.984;2022-07-21T01:40:59;101064.66;;;21.91;51.98
54924;BME280;40825;52.270;20.984;2022-07-21T01:41:40;101065.05;;;21.87;52.20
54924;BME280;40825;52.270;20.984;2022-07-21T01:42:04;101066.45;;;21.88;52.39
54924;BME280;40825;52.270;20.984;2022-07-21T01:42:25;101068.34;;;21.90;52.52
54924;BME280;40825;52.270;20.984;2022-07-21T01:42:47;101069.30;;;21.93;52.51
54924;BME280;40825;52.270;20.984;2022-07-21T01:43:08;101066.96;;;21.95;52.48
54924;BME280;40825;52.270;20.984;2022-07-21T01:43:30;101070.28;;;21.97;52.23
54924;BME280;40825;52.270;20.984;2022-07-21T01:43:51;101070.85;;;21.98;52.32
54924;BME280;40825;52.270;20.984;2022-07-21T01:44:15;101067.48;;;21.99;52.07
54924;BME280;40825;52.270;20.984;2022-07-21T01:44:37;101069.88;;;22.00;52.26
54924;BME280;40825;52.270;20.984;2022-07-21T01:44:58;101071.02;;;22.00;52.20
54924;BME280;40825;52.270;20.984;2022-07-21T01:45:21;101071.94;;;22.00;52.15
54924;BME280;40825;52.270;20.984;2022-07-21T01:45:43;101071.21;;;21.98;51.94
54924;BME280;40825;52.270;20.984;2022-07-21T01:46:05;101070.80;;;22.00;52.09
54924;BME280;40825;52.270;20.984;2022-07-21T01:46:29;101073.48;;;22.01;51.98
54924;BME280;40825;52.270;20.984;2022-07-21T01:46:52;101072.33;;;22.00;51.92
54924;BME280;40825;52.270;20.984;2022-07-21T01:47:13;101070.64;;;22.00;52.02
54924;BME280;40825;52.270;20.984;2022-07-21T01:47:36;101071.58;;;22.01;52.09
54924;BME280;40825;52.270;20.984;2022-07-21T01:47:57;101070.65;;;22.01;52.12
54924;BME280;40825;52.270;20.984;2022-07-21T01:48:43;101069.95;;;22.01;51.97
54924;BME280;40825;52.270;20.984;2022-07-21T01:49:05;101074.77;;;21.95;52.06
54924;BME280;40825;52.270;20.984;2022-07-21T01:49:27;101069.13;;;21.93;52.02
54924;BME280;40825;52.270;20.984;2022-07-21T01:49:49;101069.13;;;21.92;51.94
54924;BME280;40825;52.270;20.984;2022-07-21T01:50:12;101068.92;;;21.93;52.09
54924;BME280;40825;52.270;20.984;2022-07-21T01:50:34;101073.24;;;21.95;52.03
54924;BME280;40825;52.270;20.984;2022-07-21T01:50:55;101069.81;;;21.95;51.97
54924;BME280;40825;52.270;20.984;2022-07-21T01:51:17;101073.09;;;21.96;52.06
54924;BME280;40825;52.270;20.984;2022-07-21T01:51:39;101070.59;;;21.95;52.03
54924;BME280;40825;52.270;20.984;2022-07-21T01:52:01;101070.05;;;21.95;51.96
54924;BME280;40825;52.270;20.984;2022-07-21T01:52:22;101073.57;;;21.95;51.85
54924;BME280;40825;52.270;20.984;2022-07-21T01:52:44;101072.09;;;21.94;51.86
54924;BME280;40825;52.270;20.984;2022-07-21T01:53:06;101069.36;;;21.94;51.91
54924;BME280;40825;52.270;20.984;2022-07-21T01:53:28;101072.90;;;21.94;51.95
54924;BME280;40825;52.270;20.984;2022-07-21T01:53:50;101075.61;;;21.94;51.99
54924;BME280;40825;52.270;20.984;2022-07-21T01:54:13;101072.56;;;21.93;51.79
54924;BME280;40825;52.270;20.984;2022-07-21T01:54:34;101073.44;;;21.94;51.95
54924;BME280;40825;52.270;20.984;2022-07-21T01:54:56;101071.59;;;21.94;51.89
54924;BME280;40825;52.270;20.984;2022-07-21T01:55:17;101070.73;;;21.95;51.93
54924;BME280;40825;52.270;20.984;2022-07-21T01:55:39;101074.11;;;21.95;51.85
54924;BME280;40825;52.270;20.984;2022-07-21T01:56:01;101073.40;;;21.95;51.82
54924;BME280;40825;52.270;20.984;2022-07-21T01:56:24;101071.35;;;21.95;51.84
54924;BME280;40825;52.270;20.984;2022-07-21T01:56:46;101072.81;;;21.95;51.85
54924;BME280;40825;52.270;20.984;2022-07-21T01:57:08;101075.58;;;21.95;51.74
54924;BME280;40825;52.270;20.984;2022-07-21T01:57:30;101072.41;;;21.94;51.83
54924;BME280;40825;52.270;20.984;2022-07-21T01:57:52;101072.41;;;21.94;51.88
54924;BME280;40825;52.270;20.984;2022-07-21T01:58:13;101072.64;;;21.94;51.80
54924;BME280;40825;52.270;20.984;2022-07-21T01:58:35;101071.75;;;21.93;51.90
54924;BME280;40825;52.270;20.984;2022-07-21T01:58:57;101075.59;;;21.92;51.76
54924;BME280;40825;52.270;20.984;2022-07-21T01:59:19;101077.56;;;21.93;51.79
54924;BME280;40825;52.270;20.984;2022-07-21T01:59:43;101074.30;;;21.93;51.75
54924;BME280;40825;52.270;20.984;2022-07-21T02:00:06;101076.51;;;21.92;51.84